Frisbie, Pennsylvania
Current Conditions -  °F | °C
As of 8:54 AM on Sunday 21 Dec 2014 (Local Time) from KRDG Reporting Station
Scattered Clouds Scattered Clouds  
Wind Chill: 26°   Ceiling: Unl
Heat Index: 31°   Visibility: 10mi
Dew Point: 23°   Wind: 5mph
Humidity: 72%   Direction: 300°WNW
Pressure: 30.32"   Gusts: NA
Location:  40.633°N, 76.068°W
Report Text: KRDG 211354Z AUTO 30004KT 10SM SCT034 M01/M05 A3032 RMK AO2 SLP276 T10061050
Loading
Personal Weather Stations






























Interactive Weather Map New forecast layout! Learn more

10-Day Weather Forecast

Advertisements
Track Severe Weather on mobile